createdAt,value
2022-12-31T00:00:22.101Z,76.29
2022-12-31T00:02:04.472Z,76.25
2022-12-31T00:03:46.693Z,75.77
2022-12-31T00:05:33.857Z,76.75
2022-12-31T00:07:15.214Z,76.54
2022-12-31T00:08:58.296Z,76.31
2022-12-31T00:10:41.230Z,74.96
2022-12-31T00:12:22.578Z,74.84
2022-12-31T00:14:05.001Z,74.17
2022-12-31T00:15:46.375Z,74.61
2022-12-31T00:17:27.666Z,75.35
2022-12-31T00:19:11.079Z,74.87
2022-12-31T00:20:52.401Z,73.70
2022-12-31T00:22:33.889Z,74.19
2022-12-31T00:24:15.248Z,73.53
2022-12-31T00:25:56.530Z,73.17
2022-12-31T00:27:37.817Z,72.78
2022-12-31T00:29:19.092Z,72.88
2022-12-31T00:31:09.531Z,72.21
2022-12-31T00:32:50.855Z,71.06
2022-12-31T00:34:32.415Z,69.91
2022-12-31T00:36:17.870Z,73.62
2022-12-31T00:37:59.252Z,74.86
2022-12-31T00:39:40.624Z,76.29
2022-12-31T00:41:23.500Z,75.54
2022-12-31T00:43:04.795Z,75.75
2022-12-31T00:44:46.113Z,76.25
2022-12-31T00:46:27.558Z,75.96
2022-12-31T00:48:08.909Z,76.20
2022-12-31T00:49:50.286Z,75.13
2022-12-31T00:51:31.874Z,76.84
2022-12-31T00:53:13.472Z,77.71
2022-12-31T00:54:54.770Z,77.36
2022-12-31T00:56:36.070Z,77.20
2022-12-31T00:58:17.395Z,75.74
2022-12-31T00:59:58.760Z,75.47
2022-12-31T01:01:41.706Z,74.51
2022-12-31T01:03:23.647Z,75.73
2022-12-31T01:05:05.623Z,76.33
2022-12-31T01:06:47.735Z,76.04
2022-12-31T01:08:29.083Z,76.32
2022-12-31T01:10:10.772Z,76.93
2022-12-31T01:11:52.151Z,77.76
2022-12-31T01:13:34.173Z,77.66
2022-12-31T01:15:15.464Z,77.74
2022-12-31T01:16:56.830Z,77.53
2022-12-31T01:18:39.054Z,78.37
2022-12-31T01:20:20.401Z,78.62
2022-12-31T01:22:01.736Z,78.09
2022-12-31T01:23:43.441Z,77.37
2022-12-31T01:25:24.736Z,78.53
2022-12-31T01:27:06.081Z,79.33
2022-12-31T01:28:47.649Z,78.90
2022-12-31T01:30:29.262Z,78.23
2022-12-31T01:32:10.559Z,78.25
2022-12-31T01:33:53.014Z,78.63
2022-12-31T01:35:36.097Z,78.58
2022-12-31T01:37:17.377Z,78.79
2022-12-31T01:39:00.285Z,78.96
2022-12-31T01:40:41.750Z,78.98
2022-12-31T01:42:23.030Z,79.29
2022-12-31T01:44:13.492Z,79.51
2022-12-31T01:45:54.987Z,79.38
2022-12-31T01:47:43.643Z,80.18
2022-12-31T01:49:29.111Z,79.44
2022-12-31T01:51:10.895Z,79.25
2022-12-31T01:52:56.809Z,78.52
2022-12-31T01:54:42.968Z,77.94
2022-12-31T01:56:24.711Z,79.02
2022-12-31T01:58:20.042Z,79.24
2022-12-31T02:00:01.707Z,79.83
2022-12-31T02:01:44.510Z,79.29
2022-12-31T02:03:28.266Z,79.00
2022-12-31T02:05:18.113Z,79.25
2022-12-31T02:07:05.301Z,79.49
2022-12-31T02:08:47.533Z,79.13
2022-12-31T02:10:28.960Z,79.04
2022-12-31T02:12:10.621Z,79.09
2022-12-31T02:13:58.323Z,78.85
2022-12-31T02:15:43.157Z,78.42
2022-12-31T02:17:34.235Z,78.15
2022-12-31T02:19:37.539Z,75.99
2022-12-31T02:21:44.627Z,74.32
2022-12-31T02:23:52.326Z,73.41
2022-12-31T02:25:59.060Z,74.65
2022-12-31T02:28:08.032Z,74.44
2022-12-31T02:30:02.748Z,76.44
2022-12-31T02:32:00.155Z,76.73
2022-12-31T02:33:50.877Z,76.49
2022-12-31T02:35:46.822Z,76.79
2022-12-31T02:37:32.114Z,77.58
2022-12-31T02:39:14.495Z,77.67
2022-12-31T02:40:56.337Z,78.15
2022-12-31T02:42:37.619Z,77.79
2022-12-31T02:44:24.928Z,78.02
2022-12-31T02:46:24.670Z,78.20
2022-12-31T02:48:15.959Z,77.70
2022-12-31T02:50:15.520Z,77.00
2022-12-31T02:52:36.069Z,76.46
2022-12-31T02:54:26.449Z,100.00
2022-12-31T02:56:27.924Z,100.00
2022-12-31T02:59:00.382Z,75.28
2022-12-31T03:01:07.793Z,74.63
2022-12-31T03:02:51.810Z,74.34
2022-12-31T03:04:33.973Z,73.88
2022-12-31T03:06:15.820Z,100.00
2022-12-31T03:07:57.133Z,72.84
2022-12-31T03:09:39.079Z,100.00
2022-12-31T03:11:40.412Z,100.00
2022-12-31T03:13:21.676Z,100.00
2022-12-31T03:15:06.541Z,71.81
2022-12-31T03:16:49.072Z,71.76
2022-12-31T03:18:48.986Z,100.00
2022-12-31T03:21:11.211Z,100.00
2022-12-31T03:22:52.550Z,100.00
2022-12-31T03:24:52.647Z,100.00
2022-12-31T03:26:35.705Z,100.00
2022-12-31T03:28:20.211Z,71.86
2022-12-31T03:30:01.569Z,100.00
2022-12-31T03:31:42.924Z,100.00
2022-12-31T03:33:25.722Z,100.00
2022-12-31T03:35:07.943Z,100.00
2022-12-31T03:36:49.300Z,100.00
2022-12-31T03:38:30.638Z,100.00
2022-12-31T03:40:14.229Z,100.00
2022-12-31T03:41:55.558Z,100.00
2022-12-31T03:43:36.898Z,100.00
2022-12-31T03:45:18.968Z,100.00
2022-12-31T03:47:00.286Z,100.00
2022-12-31T03:48:41.587Z,100.00
2022-12-31T03:50:22.964Z,100.00
2022-12-31T03:52:06.335Z,100.00
2022-12-31T03:53:47.625Z,100.00
2022-12-31T03:55:28.916Z,71.15
2022-12-31T03:57:10.575Z,71.11
2022-12-31T03:58:51.851Z,70.04
2022-12-31T04:00:33.557Z,70.82
2022-12-31T04:02:15.071Z,70.57
2022-12-31T04:03:56.781Z,71.95
2022-12-31T04:05:38.093Z,71.69
2022-12-31T04:07:19.419Z,71.53
2022-12-31T04:09:00.724Z,72.36
2022-12-31T04:10:42.040Z,71.78
2022-12-31T04:12:23.696Z,71.14
2022-12-31T04:14:05.037Z,100.00
2022-12-31T04:15:49.991Z,100.00
2022-12-31T04:17:31.432Z,71.02
2022-12-31T04:19:13.229Z,100.00
2022-12-31T04:20:54.567Z,100.00
2022-12-31T04:22:35.874Z,100.00
2022-12-31T04:24:18.463Z,100.00
2022-12-31T04:25:59.746Z,100.00
2022-12-31T04:27:43.503Z,100.00
2022-12-31T04:29:25.009Z,70.28
2022-12-31T04:31:06.322Z,100.00
2022-12-31T04:32:47.627Z,100.00
2022-12-31T04:34:29.086Z,68.86
2022-12-31T04:36:10.410Z,100.00
2022-12-31T04:37:51.712Z,68.94
2022-12-31T04:39:33.003Z,70.06
2022-12-31T04:41:17.198Z,100.00
2022-12-31T04:42:58.524Z,100.00
2022-12-31T04:44:39.816Z,100.00
2022-12-31T04:49:29.235Z,69.25
2022-12-31T04:51:11.055Z,100.00
2022-12-31T04:54:43.358Z,68.11
2022-12-31T04:57:09.800Z,100.00
2022-12-31T04:59:36.120Z,100.00
2022-12-31T05:02:02.764Z,69.43
2022-12-31T05:04:29.401Z,68.37
2022-12-31T05:06:55.704Z,100.00
2022-12-31T05:09:24.036Z,100.00
2022-12-31T05:11:50.424Z,100.00
2022-12-31T05:14:17.208Z,100.00
2022-12-31T05:16:43.650Z,68.81
2022-12-31T05:19:09.973Z,68.59
2022-12-31T05:21:36.672Z,69.13
2022-12-31T05:24:03.001Z,100.00
2022-12-31T05:26:29.477Z,100.00
2022-12-31T05:28:56.499Z,68.85
2022-12-31T05:31:22.987Z,68.90
2022-12-31T05:33:49.351Z,68.81
2022-12-31T05:36:15.765Z,68.31
2022-12-31T05:38:42.283Z,68.46
2022-12-31T05:41:08.591Z,68.76
2022-12-31T05:43:36.291Z,68.71
2022-12-31T05:46:04.458Z,69.01
2022-12-31T05:48:31.851Z,69.17
2022-12-31T05:50:58.542Z,68.89
2022-12-31T05:53:25.046Z,100.00
2022-12-31T05:55:51.473Z,100.00
2022-12-31T05:58:18.214Z,100.00
2022-12-31T06:00:44.864Z,68.19
2022-12-31T06:01:49.728Z,68.69
2022-12-31T06:01:56.235Z,100.00
2022-12-31T06:02:02.559Z,100.00
2022-12-31T06:02:08.844Z,100.00
2022-12-31T06:02:15.259Z,100.00
2022-12-31T06:02:22.373Z,100.00
2022-12-31T06:02:29.881Z,100.00
2022-12-31T06:02:36.467Z,100.00
2022-12-31T06:02:42.853Z,100.00
2022-12-31T06:02:49.250Z,100.00
2022-12-31T06:02:55.823Z,100.00
2022-12-31T06:03:02.379Z,100.00
2022-12-31T06:03:09.741Z,100.00
2022-12-31T06:03:16.279Z,100.00
2022-12-31T06:03:22.828Z,100.00
2022-12-31T06:07:01.591Z,67.65
2022-12-31T06:07:07.867Z,67.84
2022-12-31T06:07:14.883Z,67.52
2022-12-31T06:07:21.186Z,67.62
2022-12-31T06:07:27.550Z,67.20
2022-12-31T06:07:34.461Z,66.73
2022-12-31T06:07:43.523Z,67.22
2022-12-31T06:07:49.802Z,67.32
2022-12-31T06:07:56.099Z,67.44
2022-12-31T06:08:02.490Z,66.66
2022-12-31T06:08:10.196Z,66.55
2022-12-31T06:08:16.573Z,66.61
2022-12-31T06:08:23.870Z,66.23
2022-12-31T06:08:30.201Z,66.25
2022-12-31T06:08:51.416Z,66.43
2022-12-31T06:08:57.705Z,66.86
2022-12-31T06:09:04.078Z,66.11
2022-12-31T06:09:10.406Z,66.06
2022-12-31T06:09:28.993Z,100.00
2022-12-31T06:09:35.298Z,100.00
2022-12-31T06:09:41.749Z,100.00
2022-12-31T06:10:00.465Z,100.00
2022-12-31T06:10:07.198Z,100.00
2022-12-31T06:10:13.516Z,100.00
2022-12-31T06:10:19.842Z,100.00
2022-12-31T08:39:03.338Z,65.49
2022-12-31T08:41:43.102Z,65.37
2022-12-31T08:44:44.941Z,65.39
2022-12-31T08:47:37.014Z,64.45
2022-12-31T08:50:05.456Z,65.47
2022-12-31T08:52:32.068Z,62.76
2022-12-31T08:54:59.114Z,64.24
2022-12-31T08:57:45.973Z,64.21
2022-12-31T09:00:15.640Z,64.37
2022-12-31T09:03:03.956Z,64.35
2022-12-31T09:05:58.165Z,64.37
2022-12-31T09:08:58.761Z,64.75
2022-12-31T09:11:56.083Z,64.17
2022-12-31T09:14:44.405Z,63.99
2022-12-31T09:17:34.883Z,63.31
2022-12-31T09:20:01.441Z,63.93
2022-12-31T09:22:27.945Z,63.70
2022-12-31T09:24:54.591Z,63.54
2022-12-31T09:27:37.943Z,64.59
2022-12-31T09:30:16.181Z,62.97
2022-12-31T09:33:00.875Z,62.79
2022-12-31T09:35:39.735Z,62.49
2022-12-31T09:38:13.510Z,61.51
2022-12-31T09:41:12.351Z,62.41
2022-12-31T09:43:58.961Z,62.45
2022-12-31T09:46:47.737Z,62.49
2022-12-31T09:49:23.346Z,61.27
2022-12-31T09:52:27.498Z,62.32
2022-12-31T09:55:02.821Z,61.50
2022-12-31T09:57:40.280Z,60.04
2022-12-31T10:00:30.010Z,60.32
2022-12-31T10:03:35.472Z,61.30
2022-12-31T10:06:33.379Z,60.45
2022-12-31T10:09:26.195Z,61.90
2022-12-31T10:12:14.473Z,61.76
2022-12-31T10:14:56.627Z,61.68
2022-12-31T10:17:49.101Z,61.81
2022-12-31T10:20:45.562Z,61.63
2022-12-31T10:23:36.639Z,61.44
2022-12-31T10:26:26.776Z,61.76
2022-12-31T10:29:10.221Z,61.38
2022-12-31T10:32:03.449Z,62.06
2022-12-31T10:34:53.559Z,61.34
2022-12-31T10:37:39.194Z,60.87
2022-12-31T10:40:24.352Z,61.76
2022-12-31T10:43:20.263Z,60.60
2022-12-31T10:46:22.684Z,59.88
2022-12-31T10:49:11.664Z,60.59
2022-12-31T10:51:56.785Z,60.63
2022-12-31T10:54:37.385Z,60.42
2022-12-31T10:57:13.017Z,60.41
2022-12-31T11:00:10.330Z,59.84
2022-12-31T11:03:22.159Z,59.81
2022-12-31T11:05:57.608Z,59.80
2022-12-31T11:08:53.760Z,60.16
2022-12-31T11:11:25.951Z,59.14
2022-12-31T11:14:20.822Z,59.26
2022-12-31T11:17:24.870Z,59.72
2022-12-31T11:20:10.621Z,59.73
2022-12-31T11:22:56.444Z,59.24
2022-12-31T11:25:41.699Z,59.75
2022-12-31T11:28:29.372Z,59.79
2022-12-31T11:30:58.705Z,59.27
2022-12-31T11:33:58.889Z,59.67
2022-12-31T11:36:47.446Z,59.78
2022-12-31T11:39:35.457Z,60.36
2022-12-31T11:42:14.239Z,59.23
2022-12-31T11:44:53.573Z,60.12
2022-12-31T11:48:28.396Z,60.64
2022-12-31T11:50:54.972Z,60.74
2022-12-31T11:53:32.315Z,59.91
2022-12-31T11:56:18.769Z,59.93
2022-12-31T11:58:51.124Z,60.31
2022-12-31T12:01:24.554Z,59.06
2022-12-31T12:03:50.915Z,60.08
2022-12-31T12:06:23.680Z,59.20
2022-12-31T12:08:50.179Z,59.46
2022-12-31T12:11:25.853Z,59.30
2022-12-31T12:13:52.195Z,59.99
2022-12-31T12:16:21.176Z,59.16
2022-12-31T12:18:51.107Z,59.67
2022-12-31T12:21:21.424Z,59.48
2022-12-31T12:23:56.540Z,58.99
2022-12-31T12:26:41.522Z,58.90
2022-12-31T12:29:28.092Z,57.76
2022-12-31T12:31:59.461Z,58.37
2022-12-31T12:34:29.390Z,58.80
2022-12-31T12:36:55.902Z,57.92
2022-12-31T12:39:25.455Z,58.72
2022-12-31T12:42:12.525Z,58.09
2022-12-31T12:44:40.074Z,58.93
2022-12-31T12:47:13.446Z,58.31
2022-12-31T12:49:44.050Z,58.48
2022-12-31T12:52:16.121Z,59.16
2022-12-31T12:55:09.046Z,59.14
2022-12-31T12:58:04.925Z,58.52
2022-12-31T13:00:40.017Z,58.41
2022-12-31T13:03:26.203Z,58.67
2022-12-31T13:06:22.935Z,58.83
2022-12-31T13:09:02.961Z,58.57
2022-12-31T13:11:29.371Z,59.00
2022-12-31T13:14:03.845Z,59.45
2022-12-31T13:16:43.898Z,58.88
2022-12-31T13:19:29.862Z,58.67
2022-12-31T13:22:02.220Z,58.74
2022-12-31T13:24:42.100Z,58.45
2022-12-31T13:27:27.199Z,58.74
2022-12-31T13:29:57.639Z,59.56
2022-12-31T13:32:34.859Z,59.14
2022-12-31T13:35:16.914Z,58.73
2022-12-31T13:37:45.034Z,58.34
2022-12-31T13:40:55.201Z,59.01
2022-12-31T13:43:50.651Z,57.91
2022-12-31T13:46:35.276Z,58.31
2022-12-31T13:49:06.390Z,57.95
2022-12-31T13:51:47.744Z,58.45
2022-12-31T13:54:38.030Z,58.40
2022-12-31T13:57:41.970Z,57.79
2022-12-31T14:00:20.995Z,58.42
2022-12-31T14:02:55.046Z,58.78
2022-12-31T14:05:46.776Z,57.71
2022-12-31T14:08:13.135Z,57.74
2022-12-31T14:10:48.606Z,58.03
2022-12-31T14:13:47.682Z,58.41
2022-12-31T14:16:19.856Z,58.26
2022-12-31T14:19:01.558Z,58.85
2022-12-31T14:21:42.187Z,57.78
2022-12-31T14:24:49.718Z,57.56
2022-12-31T14:27:29.620Z,57.44
2022-12-31T14:30:03.062Z,57.17
2022-12-31T14:32:57.298Z,57.44
2022-12-31T14:35:45.384Z,56.68
2022-12-31T14:38:37.281Z,56.24
2022-12-31T14:41:18.454Z,56.81
2022-12-31T14:43:59.905Z,56.37
2022-12-31T14:47:03.716Z,55.77
2022-12-31T14:49:42.358Z,54.81
2022-12-31T14:52:33.387Z,55.57
2022-12-31T14:55:08.906Z,54.97
2022-12-31T14:58:01.610Z,55.23
2022-12-31T15:00:34.994Z,55.53
2022-12-31T15:03:23.263Z,55.83
2022-12-31T15:05:54.520Z,55.43
2022-12-31T15:08:48.284Z,57.03
2022-12-31T15:11:27.098Z,56.96
2022-12-31T15:14:38.827Z,57.92
2022-12-31T15:17:39.500Z,58.38
2022-12-31T15:20:18.072Z,58.60
2022-12-31T15:22:51.971Z,59.28
2022-12-31T15:25:21.283Z,59.13
2022-12-31T15:27:48.820Z,58.74
2022-12-31T15:30:36.862Z,59.71
2022-12-31T15:33:37.681Z,59.30
2022-12-31T15:36:18.796Z,60.61
2022-12-31T15:38:45.772Z,60.75
2022-12-31T15:41:46.057Z,61.41
2022-12-31T15:44:31.371Z,60.29
2022-12-31T15:47:25.610Z,61.30
2022-12-31T15:49:55.306Z,62.34
2022-12-31T15:52:32.345Z,63.05
2022-12-31T15:55:03.693Z,63.16
2022-12-31T15:57:40.579Z,62.61
2022-12-31T16:00:15.996Z,62.51
2022-12-31T16:02:43.129Z,62.45
2022-12-31T16:05:27.164Z,62.38
2022-12-31T16:07:58.242Z,62.35
2022-12-31T16:10:28.114Z,62.90
2022-12-31T16:12:57.075Z,62.52
2022-12-31T16:15:28.169Z,63.13
2022-12-31T16:18:10.671Z,62.52
2022-12-31T16:20:42.826Z,62.68
2022-12-31T16:23:24.128Z,62.66
2022-12-31T16:25:53.791Z,62.60
2022-12-31T16:28:23.257Z,62.89
2022-12-31T16:31:05.633Z,63.57
2022-12-31T16:33:32.303Z,62.01
2022-12-31T16:36:01.326Z,61.97
2022-12-31T16:38:36.598Z,61.88
2022-12-31T16:41:02.883Z,61.54
2022-12-31T16:43:40.593Z,61.58
2022-12-31T16:46:15.919Z,61.72
2022-12-31T16:49:12.644Z,60.98
2022-12-31T16:51:39.492Z,61.51
2022-12-31T16:54:19.244Z,60.83
2022-12-31T16:56:45.838Z,61.38
2022-12-31T16:59:23.280Z,60.89
2022-12-31T17:01:50.909Z,60.48
2022-12-31T17:04:20.710Z,61.14
2022-12-31T17:06:47.568Z,61.08
2022-12-31T17:09:33.448Z,61.07
2022-12-31T17:12:16.508Z,61.42
2022-12-31T17:14:51.776Z,60.87
2022-12-31T17:17:25.561Z,60.85
2022-12-31T17:19:58.552Z,61.26
2022-12-31T17:22:36.685Z,60.80
2022-12-31T17:25:30.879Z,60.02
2022-12-31T17:28:00.106Z,60.29
2022-12-31T17:30:29.483Z,59.89
2022-12-31T17:33:24.837Z,58.90
2022-12-31T17:36:14.983Z,58.91
2022-12-31T17:38:42.203Z,58.32
2022-12-31T17:41:08.460Z,58.41
2022-12-31T17:43:38.855Z,58.88
2022-12-31T17:46:11.702Z,58.30
2022-12-31T17:48:38.286Z,58.14
2022-12-31T17:51:04.639Z,57.99
2022-12-31T17:53:30.909Z,57.70
2022-12-31T17:56:04.416Z,56.24
2022-12-31T17:58:35.456Z,56.39
2022-12-31T18:01:06.189Z,56.18
2022-12-31T18:03:32.642Z,56.29
2022-12-31T18:05:58.970Z,55.53
2022-12-31T18:08:25.304Z,55.37
2022-12-31T18:10:53.247Z,55.60
2022-12-31T18:13:28.450Z,55.31
2022-12-31T18:15:55.127Z,54.72
2022-12-31T18:18:27.821Z,54.75
2022-12-31T18:20:58.673Z,54.17
2022-12-31T18:23:34.883Z,53.76
2022-12-31T18:26:01.202Z,54.29
2022-12-31T18:28:27.499Z,54.78
2022-12-31T18:30:53.968Z,53.95
2022-12-31T18:33:25.052Z,53.96
2022-12-31T18:36:09.552Z,53.98
2022-12-31T18:38:36.446Z,54.69
2022-12-31T18:41:02.829Z,54.72
2022-12-31T18:43:29.141Z,55.02
2022-12-31T18:45:55.642Z,54.97
2022-12-31T18:48:22.037Z,55.15
2022-12-31T18:50:48.640Z,55.57
2022-12-31T18:53:17.343Z,55.67
2022-12-31T18:55:52.679Z,55.73
2022-12-31T18:58:19.360Z,55.56
2022-12-31T19:00:47.076Z,56.62
2022-12-31T19:03:21.022Z,57.72
2022-12-31T19:05:49.780Z,57.46
2022-12-31T19:08:21.395Z,58.28
2022-12-31T19:10:49.290Z,57.84
2022-12-31T19:13:17.639Z,58.69
2022-12-31T19:15:49.449Z,58.82
2022-12-31T19:18:16.389Z,58.59
2022-12-31T19:20:42.779Z,58.36
2022-12-31T19:23:16.841Z,57.55
2022-12-31T19:25:44.348Z,57.56
2022-12-31T19:28:29.365Z,57.62
2022-12-31T19:30:55.715Z,56.92
2022-12-31T19:33:22.368Z,57.38
2022-12-31T19:35:49.001Z,56.91
2022-12-31T19:38:24.046Z,55.18
2022-12-31T19:40:52.131Z,55.34
2022-12-31T19:43:20.780Z,55.51
2022-12-31T19:45:47.934Z,55.26
2022-12-31T19:48:16.720Z,56.10
2022-12-31T19:50:46.169Z,55.35
2022-12-31T19:53:15.293Z,55.59
2022-12-31T19:55:41.963Z,55.72
2022-12-31T19:58:15.381Z,55.49
2022-12-31T20:00:41.716Z,55.82
2022-12-31T20:03:10.937Z,56.81
2022-12-31T20:05:37.423Z,56.43
2022-12-31T20:08:03.871Z,56.12
2022-12-31T20:10:30.469Z,55.71
2022-12-31T20:12:56.809Z,56.58
2022-12-31T20:15:23.086Z,56.12
2022-12-31T20:17:49.443Z,56.53
2022-12-31T20:20:15.898Z,57.10
2022-12-31T20:22:42.239Z,56.17
2022-12-31T20:25:09.211Z,56.76
2022-12-31T20:27:35.666Z,56.86
2022-12-31T20:30:02.151Z,56.52
2022-12-31T20:32:28.444Z,56.84
2022-12-31T20:34:54.746Z,56.81
2022-12-31T20:37:21.121Z,56.66
2022-12-31T20:39:47.478Z,57.15
2022-12-31T20:42:13.847Z,55.73
2022-12-31T20:44:40.134Z,55.81
2022-12-31T20:47:06.480Z,55.57
2022-12-31T20:50:01.285Z,55.59
2022-12-31T20:52:19.190Z,55.25
2022-12-31T20:54:45.466Z,56.02
2022-12-31T20:57:11.756Z,55.69
2022-12-31T20:59:38.200Z,55.35
2022-12-31T21:02:21.136Z,55.22
2022-12-31T21:04:48.183Z,54.91
2022-12-31T21:07:14.694Z,55.01
2022-12-31T21:09:41.036Z,55.55
2022-12-31T21:12:29.445Z,54.81
2022-12-31T21:14:56.073Z,54.68
2022-12-31T21:17:22.387Z,54.77
2022-12-31T21:19:48.767Z,54.88
2022-12-31T21:22:15.259Z,55.34
2022-12-31T21:24:41.501Z,54.20
2022-12-31T21:27:07.884Z,55.04
2022-12-31T21:29:34.928Z,55.56
2022-12-31T21:32:01.924Z,54.84
2022-12-31T21:34:28.349Z,54.86
2022-12-31T21:36:54.661Z,54.71
2022-12-31T21:39:21.097Z,54.39
2022-12-31T21:41:53.111Z,54.47
2022-12-31T21:44:25.059Z,54.63
2022-12-31T21:47:45.465Z,54.00
2022-12-31T21:50:09.104Z,54.71
2022-12-31T21:52:35.490Z,54.41
2022-12-31T21:55:23.310Z,54.11
2022-12-31T22:00:55.689Z,54.81
2022-12-31T22:03:24.742Z,55.26
2022-12-31T22:06:12.364Z,55.25
2022-12-31T22:08:43.814Z,55.04
2022-12-31T22:11:11.960Z,55.04
2022-12-31T22:13:38.708Z,55.51
2022-12-31T22:16:06.411Z,55.48
2022-12-31T22:18:38.900Z,55.90
2022-12-31T22:21:19.995Z,55.58
2022-12-31T22:23:54.475Z,55.27
2022-12-31T22:26:24.117Z,55.54
2022-12-31T22:28:51.413Z,56.02
2022-12-31T22:31:26.389Z,55.29
2022-12-31T22:33:53.851Z,55.06
2022-12-31T22:36:22.769Z,55.51
2022-12-31T22:38:51.054Z,54.72
2022-12-31T22:41:22.301Z,55.01
2022-12-31T22:43:57.204Z,55.21
2022-12-31T22:46:28.820Z,55.13
2022-12-31T22:48:57.831Z,55.00
2022-12-31T22:51:24.194Z,55.47
2022-12-31T22:53:50.590Z,56.07
2022-12-31T22:56:18.792Z,55.63
2022-12-31T22:58:45.515Z,55.62
2022-12-31T23:01:20.274Z,56.87
2022-12-31T23:03:55.049Z,56.77
2022-12-31T23:06:23.314Z,56.96
2022-12-31T23:09:09.272Z,57.67
2022-12-31T23:11:37.245Z,57.33
2022-12-31T23:14:23.823Z,57.73
2022-12-31T23:17:29.801Z,57.61
2022-12-31T23:20:14.131Z,58.67
2022-12-31T23:22:58.853Z,59.59
2022-12-31T23:25:25.188Z,59.82
2022-12-31T23:27:51.528Z,60.39
2022-12-31T23:30:17.988Z,60.46
2022-12-31T23:32:44.424Z,61.38
2022-12-31T23:35:10.786Z,61.07
2022-12-31T23:37:37.129Z,61.25
2022-12-31T23:40:03.972Z,61.48
2022-12-31T23:42:30.330Z,61.73
2022-12-31T23:44:56.721Z,61.91
2022-12-31T23:47:23.094Z,61.54
2022-12-31T23:49:49.392Z,62.10
2022-12-31T23:52:15.732Z,62.89
2022-12-31T23:54:42.053Z,62.55
2022-12-31T23:57:08.504Z,62.93
2022-12-31T23:59:34.814Z,62.93
